createdAt,value
2022-08-19T00:00:58.988Z,1005.65
2022-08-19T00:01:59.298Z,1005.70
2022-08-19T00:02:59.001Z,1005.68
2022-08-19T00:03:58.997Z,1005.69
2022-08-19T00:04:59.062Z,1005.71
2022-08-19T00:05:59.004Z,1005.74
2022-08-19T00:06:59.013Z,1005.79
2022-08-19T00:07:59.012Z,1005.86
2022-08-19T00:08:59.016Z,1005.90
2022-08-19T00:09:59.027Z,1005.97
2022-08-19T00:10:59.023Z,1006.07
2022-08-19T00:11:59.025Z,1006.12
2022-08-19T00:12:59.034Z,1006.17
2022-08-19T00:13:59.033Z,1006.18
2022-08-19T00:14:59.034Z,1006.18
2022-08-19T00:15:59.037Z,1006.15
2022-08-19T00:16:59.045Z,1006.12
2022-08-19T00:17:59.050Z,1006.11
2022-08-19T00:18:59.052Z,1006.10
2022-08-19T00:19:59.054Z,1006.11
2022-08-19T00:20:59.057Z,1006.12
2022-08-19T00:21:59.061Z,1006.10
2022-08-19T00:22:59.065Z,1006.05
2022-08-19T00:23:59.109Z,1006.01
2022-08-19T00:24:59.073Z,1006.00
2022-08-19T00:25:59.074Z,1006.03
2022-08-19T00:27:25.315Z,1005.97
2022-08-19T00:27:59.076Z,1005.90
2022-08-19T00:28:59.081Z,1005.82
2022-08-19T00:29:59.083Z,1005.78
2022-08-19T00:30:59.088Z,1005.76
2022-08-19T00:31:59.089Z,1005.76
2022-08-19T00:32:59.093Z,1005.69
2022-08-19T00:33:59.098Z,1005.67
2022-08-19T00:34:59.100Z,1005.67
2022-08-19T00:35:59.103Z,1005.61
2022-08-19T00:36:59.104Z,1005.61
2022-08-19T00:37:59.108Z,1005.59
2022-08-19T00:38:59.109Z,1005.54
2022-08-19T00:39:59.167Z,1005.54
2022-08-19T00:40:59.116Z,1005.50
2022-08-19T00:41:59.123Z,1005.49
2022-08-19T00:42:59.129Z,1005.50
2022-08-19T00:43:59.129Z,1005.54
2022-08-19T00:44:59.131Z,1005.54
2022-08-19T00:45:59.135Z,1005.53
2022-08-19T00:46:59.135Z,1005.56
2022-08-19T00:47:59.137Z,1005.56
2022-08-19T00:48:59.145Z,1005.54
2022-08-19T00:49:59.145Z,1005.56
2022-08-19T00:50:59.147Z,1005.57
2022-08-19T00:51:59.148Z,1005.57
2022-08-19T00:52:59.154Z,1005.59
2022-08-19T00:53:59.157Z,1005.62
2022-08-19T00:54:59.159Z,1005.70
2022-08-19T00:55:59.163Z,1005.66
2022-08-19T00:56:59.164Z,1005.68
2022-08-19T00:57:59.167Z,1005.65
2022-08-19T00:58:59.170Z,1005.70
2022-08-19T01:00:02.438Z,1005.68
2022-08-19T01:00:59.183Z,1005.69
2022-08-19T01:01:59.266Z,1005.72
2022-08-19T01:02:59.183Z,1005.71
2022-08-19T01:03:59.185Z,1005.69
2022-08-19T01:04:59.187Z,1005.71
2022-08-19T01:05:59.190Z,1005.79
2022-08-19T01:06:59.194Z,1005.86
2022-08-19T01:07:59.193Z,1005.89
2022-08-19T01:08:59.198Z,1005.89
2022-08-19T01:09:59.203Z,1005.97
2022-08-19T01:10:59.206Z,1006.01
2022-08-19T01:11:59.210Z,1006.05
2022-08-19T01:12:59.210Z,1006.05
2022-08-19T01:13:59.216Z,1006.09
2022-08-19T01:14:59.221Z,1006.10
2022-08-19T01:15:59.219Z,1006.09
2022-08-19T01:16:59.224Z,1006.11
2022-08-19T01:17:59.230Z,1006.02
2022-08-19T01:18:59.229Z,1005.97
2022-08-19T01:19:59.234Z,1005.86
2022-08-19T01:20:59.235Z,1005.98
2022-08-19T01:21:59.236Z,1006.10
2022-08-19T01:22:59.241Z,1006.06
2022-08-19T01:23:59.238Z,1005.93
2022-08-19T01:24:59.394Z,1006.00
2022-08-19T01:25:59.248Z,1005.99
2022-08-19T01:26:59.253Z,1005.98
2022-08-19T01:28:07.223Z,1006.03
2022-08-19T01:29:00.871Z,1006.04
2022-08-19T01:29:59.262Z,1006.03
2022-08-19T01:30:59.263Z,1006.05
2022-08-19T01:31:59.266Z,1006.04
2022-08-19T01:32:59.270Z,1006.05
2022-08-19T01:33:59.266Z,1005.93
2022-08-19T01:34:59.281Z,1005.67
2022-08-19T01:35:59.276Z,1005.63
2022-08-19T01:36:59.283Z,1005.53
2022-08-19T01:37:59.279Z,1005.48
2022-08-19T01:38:59.287Z,1005.63
2022-08-19T01:39:59.369Z,1005.66
2022-08-19T01:40:59.299Z,1005.58
2022-08-19T01:41:59.297Z,1005.56
2022-08-19T01:42:59.293Z,1005.56
2022-08-19T01:44:13.464Z,1005.46
2022-08-19T01:44:59.298Z,1005.39
2022-08-19T01:45:59.305Z,1005.27
2022-08-19T01:46:59.309Z,1005.19
2022-08-19T01:48:01.858Z,1005.06
2022-08-19T01:48:59.319Z,1004.95
2022-08-19T01:49:59.319Z,1004.91
2022-08-19T01:50:59.314Z,1004.92
2022-08-19T01:51:59.319Z,1004.90
2022-08-19T01:53:05.870Z,1004.89
2022-08-19T01:53:59.321Z,1004.88
2022-08-19T01:54:59.332Z,1004.93
2022-08-19T01:55:59.327Z,1004.93
2022-08-19T01:56:59.334Z,1004.91
2022-08-19T01:57:59.336Z,1004.90
2022-08-19T01:58:59.335Z,1004.79
2022-08-19T01:59:59.339Z,1004.70
2022-08-19T02:00:59.385Z,1004.69
2022-08-19T02:01:59.345Z,1004.72
2022-08-19T02:02:59.346Z,1004.74
2022-08-19T02:03:59.348Z,1004.82
2022-08-19T02:04:59.355Z,1004.81
2022-08-19T02:05:59.358Z,1004.80
2022-08-19T02:06:59.358Z,1004.77
2022-08-19T02:07:59.360Z,1004.79
2022-08-19T02:08:59.366Z,1004.78
2022-08-19T02:09:59.366Z,1004.77
2022-08-19T02:10:59.365Z,1004.73
2022-08-19T02:11:59.372Z,1004.76
2022-08-19T02:12:59.375Z,1004.72
2022-08-19T02:13:59.375Z,1004.72
2022-08-19T02:14:59.378Z,1004.74
2022-08-19T02:15:59.379Z,1004.78
2022-08-19T02:16:59.385Z,1004.78
2022-08-19T02:17:59.387Z,1004.77
2022-08-19T02:18:59.390Z,1004.81
2022-08-19T02:19:59.392Z,1004.79
2022-08-19T02:20:59.395Z,1004.82
2022-08-19T02:21:59.396Z,1004.80
2022-08-19T02:22:59.406Z,1004.82
2022-08-19T02:23:59.428Z,1004.85
2022-08-19T02:24:59.405Z,1004.86
2022-08-19T02:25:59.405Z,1004.91
2022-08-19T02:26:59.408Z,1004.92
2022-08-19T02:27:59.410Z,1004.96
2022-08-19T02:28:59.417Z,1004.88
2022-08-19T02:29:59.420Z,1004.86
2022-08-19T02:30:59.422Z,1004.84
2022-08-19T02:31:59.427Z,1004.83
2022-08-19T02:32:59.583Z,1004.83
2022-08-19T02:33:59.434Z,1004.87
2022-08-19T02:34:59.426Z,1004.85
2022-08-19T02:35:59.438Z,1004.84
2022-08-19T02:37:03.176Z,1004.85
2022-08-19T02:37:59.448Z,1004.88
2022-08-19T02:38:59.440Z,1004.84
2022-08-19T02:39:59.530Z,1004.81
2022-08-19T02:40:59.444Z,1004.77
2022-08-19T02:41:59.452Z,1004.77
2022-08-19T02:42:59.452Z,1004.80
2022-08-19T02:44:18.382Z,1004.79
2022-08-19T02:44:59.458Z,1004.86
2022-08-19T02:45:59.466Z,1004.88
2022-08-19T02:46:59.463Z,1004.84
2022-08-19T02:47:59.468Z,1004.84
2022-08-19T02:48:59.469Z,1004.87
2022-08-19T02:49:59.471Z,1004.83
2022-08-19T02:50:59.474Z,1004.88
2022-08-19T02:51:59.477Z,1004.84
2022-08-19T02:52:59.475Z,1004.86
2022-08-19T02:53:59.480Z,1004.86
2022-08-19T02:54:59.483Z,1004.92
2022-08-19T02:55:59.492Z,1004.92
2022-08-19T02:56:59.491Z,1004.91
2022-08-19T02:57:59.493Z,1004.88
2022-08-19T02:58:59.494Z,1004.95
2022-08-19T02:59:59.496Z,1004.87
2022-08-19T03:00:59.670Z,1004.94
2022-08-19T03:01:59.506Z,1004.98
2022-08-19T03:02:59.512Z,1004.94
2022-08-19T03:03:59.506Z,1004.92
2022-08-19T03:04:59.511Z,1004.88
2022-08-19T03:05:59.516Z,1004.86
2022-08-19T03:07:07.231Z,1004.88
2022-08-19T03:07:59.514Z,1004.92
2022-08-19T03:08:59.519Z,1004.89
2022-08-19T03:09:59.537Z,1004.92
2022-08-19T03:10:59.527Z,1004.97
2022-08-19T03:11:59.530Z,1004.97
2022-08-19T03:12:59.532Z,1004.94
2022-08-19T03:13:59.537Z,1004.93
2022-08-19T03:14:59.535Z,1004.88
2022-08-19T03:15:59.542Z,1004.90
2022-08-19T03:16:59.538Z,1004.85
2022-08-19T03:17:59.543Z,1004.81
2022-08-19T03:18:59.546Z,1004.79
2022-08-19T03:19:59.548Z,1004.76
2022-08-19T03:20:59.553Z,1004.70
2022-08-19T03:21:59.563Z,1004.69
2022-08-19T03:22:59.555Z,1004.67
2022-08-19T03:23:59.561Z,1004.66
2022-08-19T03:24:59.560Z,1004.63
2022-08-19T03:26:05.588Z,1004.59
2022-08-19T03:26:59.571Z,1004.54
2022-08-19T03:27:59.575Z,1004.52
2022-08-19T03:28:59.571Z,1004.51
2022-08-19T03:29:59.578Z,1004.55
2022-08-19T03:30:59.578Z,1004.49
2022-08-19T03:31:59.578Z,1004.49
2022-08-19T03:32:59.621Z,1004.54
2022-08-19T03:33:59.589Z,1004.55
2022-08-19T03:34:59.585Z,1004.55
2022-08-19T03:35:59.595Z,1004.57
2022-08-19T03:36:59.589Z,1004.62
2022-08-19T03:37:59.595Z,1004.67
2022-08-19T03:39:00.070Z,1004.71
2022-08-19T03:39:59.696Z,1004.73
2022-08-19T03:40:59.612Z,1004.76
2022-08-19T03:42:30.110Z,1004.75
2022-08-19T03:42:59.740Z,1004.75
2022-08-19T03:43:59.614Z,1004.76
2022-08-19T03:44:59.611Z,1004.78
2022-08-19T03:45:59.624Z,1004.79
2022-08-19T03:46:59.619Z,1004.86
2022-08-19T03:47:59.621Z,1004.89
2022-08-19T03:48:59.625Z,1004.88
2022-08-19T03:49:59.637Z,1004.83
2022-08-19T03:50:59.634Z,1004.83
2022-08-19T03:51:59.629Z,1004.86
2022-08-19T03:52:59.636Z,1004.84
2022-08-19T03:53:59.639Z,1004.81
2022-08-19T03:54:59.640Z,1004.85
2022-08-19T03:55:59.642Z,1004.84
2022-08-19T03:56:59.642Z,1004.85
2022-08-19T03:57:59.648Z,1004.83
2022-08-19T03:58:59.649Z,1004.80
2022-08-19T04:00:12.505Z,1004.85
2022-08-19T04:00:59.743Z,1004.85
2022-08-19T04:01:59.665Z,1004.83
2022-08-19T04:03:00.862Z,1004.83
2022-08-19T04:03:59.663Z,1004.79
2022-08-19T04:04:59.670Z,1004.81
2022-08-19T04:05:59.669Z,1004.82
2022-08-19T04:06:59.673Z,1004.79
2022-08-19T04:07:59.675Z,1004.87
2022-08-19T04:08:59.674Z,1004.84
2022-08-19T04:09:59.678Z,1004.90
2022-08-19T04:10:59.688Z,1004.90
2022-08-19T04:11:59.688Z,1004.96
2022-08-19T04:12:59.697Z,1004.96
2022-08-19T04:13:59.685Z,1004.94
2022-08-19T04:14:59.689Z,1004.95
2022-08-19T04:15:59.690Z,1004.93
2022-08-19T04:16:59.698Z,1004.88
2022-08-19T04:17:59.701Z,1004.88
2022-08-19T04:18:59.901Z,1004.83
2022-08-19T04:19:59.703Z,1004.85
2022-08-19T04:20:59.706Z,1004.83
2022-08-19T04:21:59.719Z,1004.84
2022-08-19T04:22:59.709Z,1004.90
2022-08-19T04:23:59.717Z,1004.89
2022-08-19T04:24:59.713Z,1004.85
2022-08-19T04:25:59.717Z,1004.90
2022-08-19T04:26:59.721Z,1004.91
2022-08-19T04:27:59.722Z,1004.94
2022-08-19T04:28:59.733Z,1004.99
2022-08-19T04:29:59.729Z,1004.93
2022-08-19T04:30:59.729Z,1004.95
2022-08-19T04:31:59.733Z,1004.91
2022-08-19T04:32:59.734Z,1004.90
2022-08-19T04:33:59.743Z,1004.92
2022-08-19T04:35:02.601Z,1004.95
2022-08-19T04:35:59.752Z,1004.94
2022-08-19T04:36:59.745Z,1004.91
2022-08-19T04:37:59.754Z,1004.91
2022-08-19T04:38:59.750Z,1004.95
2022-08-19T04:40:01.644Z,1004.96
2022-08-19T04:40:59.757Z,1004.92
2022-08-19T04:41:59.758Z,1004.91
2022-08-19T04:42:59.758Z,1004.95
2022-08-19T04:44:03.823Z,1004.90
2022-08-19T04:44:59.770Z,1004.89
2022-08-19T04:46:01.107Z,1004.85
2022-08-19T04:46:59.774Z,1004.80
2022-08-19T04:48:27.184Z,1004.80
2022-08-19T04:48:59.776Z,1004.86
2022-08-19T04:49:59.781Z,1004.89
2022-08-19T04:50:59.782Z,1004.88
2022-08-19T04:51:59.785Z,1004.92
2022-08-19T04:52:59.791Z,1004.88
2022-08-19T04:53:59.792Z,1004.94
2022-08-19T04:54:59.795Z,1004.91
2022-08-19T04:55:59.801Z,1004.92
2022-08-19T04:56:59.798Z,1004.93
2022-08-19T04:57:59.801Z,1004.94
2022-08-19T04:58:59.805Z,1004.95
2022-08-19T04:59:59.803Z,1004.99
2022-08-19T05:00:59.837Z,1004.96
2022-08-19T05:01:59.812Z,1004.95
2022-08-19T05:02:59.812Z,1004.96
2022-08-19T05:03:59.817Z,1004.96
2022-08-19T05:04:59.823Z,1004.90
2022-08-19T05:05:59.827Z,1004.87
2022-08-19T05:07:00.811Z,1004.84
2022-08-19T05:07:59.826Z,1004.83
2022-08-19T05:08:59.826Z,1004.80
2022-08-19T05:09:59.831Z,1004.75
2022-08-19T05:10:59.835Z,1004.74
2022-08-19T05:11:59.833Z,1004.81
2022-08-19T05:12:59.842Z,1004.79
2022-08-19T05:13:59.841Z,1004.80
2022-08-19T05:14:59.844Z,1004.75
2022-08-19T05:15:59.853Z,1004.77
2022-08-19T05:17:25.523Z,1004.79
2022-08-19T05:17:59.856Z,1004.73
2022-08-19T05:18:59.864Z,1004.72
2022-08-19T05:19:59.858Z,1004.69
2022-08-19T05:20:59.861Z,1004.68
2022-08-19T05:21:59.866Z,1004.64
2022-08-19T05:22:59.866Z,1004.64
2022-08-19T05:23:59.872Z,1004.59
2022-08-19T05:25:12.169Z,1004.58
2022-08-19T05:25:59.880Z,1004.57
2022-08-19T05:26:59.876Z,1004.59
2022-08-19T05:27:59.883Z,1004.56
2022-08-19T05:28:59.886Z,1004.57
2022-08-19T05:29:59.889Z,1004.56
2022-08-19T05:30:59.891Z,1004.59
2022-08-19T05:31:59.894Z,1004.56
2022-08-19T05:32:59.899Z,1004.60
2022-08-19T05:33:59.909Z,1004.61
2022-08-19T05:34:59.901Z,1004.57
2022-08-19T05:35:59.905Z,1004.59
2022-08-19T05:36:59.901Z,1004.57
2022-08-19T05:37:59.910Z,1004.60
2022-08-19T05:38:59.914Z,1004.65
2022-08-19T05:39:59.972Z,1004.67
2022-08-19T05:40:59.920Z,1004.64
2022-08-19T05:41:59.918Z,1004.65
2022-08-19T05:42:59.924Z,1004.69
2022-08-19T05:43:59.935Z,1004.68
2022-08-19T05:44:59.926Z,1004.72
2022-08-19T05:45:59.934Z,1004.75
2022-08-19T05:46:59.932Z,1004.74
2022-08-19T05:47:59.937Z,1004.75
2022-08-19T05:48:59.937Z,1004.79
2022-08-19T05:49:59.941Z,1004.78
2022-08-19T05:50:59.944Z,1004.76
2022-08-19T05:51:59.949Z,1004.83
2022-08-19T05:52:59.948Z,1004.83
2022-08-19T05:53:59.957Z,1004.82
2022-08-19T05:54:59.965Z,1004.84
2022-08-19T05:55:59.963Z,1004.83
2022-08-19T05:56:59.960Z,1004.83
2022-08-19T05:57:59.968Z,1004.79
2022-08-19T05:58:59.967Z,1004.82
2022-08-19T05:59:59.971Z,1004.83
2022-08-19T06:00:59.978Z,1004.81
2022-08-19T06:01:59.983Z,1004.83
2022-08-19T06:03:00.005Z,1004.83
2022-08-19T06:03:59.985Z,1004.85
2022-08-19T06:05:00.001Z,1004.92
2022-08-19T06:05:59.990Z,1004.94
2022-08-19T06:06:59.990Z,1004.94
2022-08-19T06:07:59.994Z,1004.98
2022-08-19T06:08:59.991Z,1004.97
2022-08-19T06:10:01.384Z,1005.00
2022-08-19T06:11:00.008Z,1004.97
2022-08-19T06:12:00.005Z,1004.95
2022-08-19T06:13:00.014Z,1004.94
2022-08-19T06:14:00.417Z,1004.98
2022-08-19T06:15:01.366Z,1004.95
2022-08-19T06:16:00.019Z,1005.01
2022-08-19T06:17:01.780Z,1005.08
2022-08-19T06:18:00.023Z,1005.10
2022-08-19T06:19:00.030Z,1005.14
2022-08-19T06:20:00.375Z,1005.10
2022-08-19T06:21:00.034Z,1005.11
2022-08-19T06:22:00.039Z,1005.11
2022-08-19T06:23:00.044Z,1005.03
2022-08-19T06:24:00.045Z,1005.09
2022-08-19T06:25:00.047Z,1005.07
2022-08-19T06:26:00.061Z,1005.04
2022-08-19T06:27:01.391Z,1005.05
2022-08-19T06:28:15.786Z,1005.03
2022-08-19T06:29:00.072Z,1005.04
2022-08-19T06:30:00.075Z,1005.05
2022-08-19T06:31:00.072Z,1005.04
2022-08-19T06:32:00.076Z,1005.01
2022-08-19T06:33:00.084Z,1005.04
2022-08-19T06:34:00.077Z,1004.99
2022-08-19T06:35:00.092Z,1004.99
2022-08-19T06:36:00.083Z,1004.99
2022-08-19T06:37:00.084Z,1004.97
2022-08-19T06:38:00.096Z,1005.00
2022-08-19T06:39:00.096Z,1005.04
2022-08-19T06:40:00.187Z,1004.98
2022-08-19T06:41:00.147Z,1004.98
2022-08-19T06:42:00.106Z,1004.97
2022-08-19T06:43:00.716Z,1004.96
2022-08-19T06:44:00.111Z,1004.95
2022-08-19T06:45:00.115Z,1004.91
2022-08-19T06:46:00.124Z,1004.95
2022-08-19T06:47:00.134Z,1004.95
2022-08-19T06:48:00.124Z,1004.96
2022-08-19T06:49:00.127Z,1004.98
2022-08-19T06:50:01.045Z,1005.01
2022-08-19T06:51:00.155Z,1004.99
2022-08-19T06:52:00.140Z,1005.04
2022-08-19T06:53:01.438Z,1005.06
2022-08-19T06:54:00.185Z,1005.10
2022-08-19T06:55:00.149Z,1005.11
2022-08-19T06:56:00.150Z,1005.09
2022-08-19T06:57:00.154Z,1005.08
2022-08-19T06:58:00.157Z,1005.10
2022-08-19T06:59:00.162Z,1005.11
2022-08-19T07:00:00.174Z,1005.14
2022-08-19T07:01:00.169Z,1005.19
2022-08-19T07:02:00.170Z,1005.20
2022-08-19T07:03:03.065Z,1005.23
2022-08-19T07:04:00.177Z,1005.32
2022-08-19T07:05:00.333Z,1005.36
2022-08-19T07:06:00.188Z,1005.39
2022-08-19T07:07:00.193Z,1005.40
2022-08-19T07:08:04.581Z,1005.44
2022-08-19T07:09:00.195Z,1005.44
2022-08-19T07:10:02.744Z,1005.46
2022-08-19T07:11:00.204Z,1005.47
2022-08-19T07:12:00.203Z,1005.50
2022-08-19T07:13:00.210Z,1005.47
2022-08-19T07:14:00.213Z,1005.43
2022-08-19T07:15:00.219Z,1005.38
2022-08-19T07:16:00.222Z,1005.39
2022-08-19T07:17:00.229Z,1005.35
2022-08-19T07:18:00.226Z,1005.32
2022-08-19T07:19:00.231Z,1005.32
2022-08-19T07:20:05.536Z,1005.25
2022-08-19T07:21:00.238Z,1005.26
2022-08-19T07:22:00.243Z,1005.23
2022-08-19T07:23:00.249Z,1005.20
2022-08-19T07:24:02.920Z,1005.22
2022-08-19T07:25:00.250Z,1005.25
2022-08-19T07:26:00.290Z,1005.24
2022-08-19T07:27:00.258Z,1005.24
2022-08-19T07:28:00.278Z,1005.27
2022-08-19T07:29:00.264Z,1005.30
2022-08-19T07:30:00.269Z,1005.32
2022-08-19T07:31:00.273Z,1005.38
2022-08-19T07:32:00.936Z,1005.35
2022-08-19T07:33:00.287Z,1005.38
2022-08-19T07:34:00.291Z,1005.36
2022-08-19T07:35:00.291Z,1005.35
2022-08-19T07:36:00.294Z,1005.39
2022-08-19T07:37:00.298Z,1005.38
2022-08-19T07:38:00.311Z,1005.42
2022-08-19T07:39:00.305Z,1005.44
2022-08-19T07:40:00.446Z,1005.49
2022-08-19T07:41:00.309Z,1005.41
2022-08-19T07:42:00.310Z,1005.44
2022-08-19T07:43:00.322Z,1005.44
2022-08-19T07:44:00.316Z,1005.40
2022-08-19T07:45:00.331Z,1005.41
2022-08-19T07:46:00.391Z,1005.41
2022-08-19T07:47:00.331Z,1005.46
2022-08-19T07:48:00.675Z,1005.49
2022-08-19T07:49:00.338Z,1005.47
2022-08-19T07:50:00.345Z,1005.53
2022-08-19T07:51:00.353Z,1005.53
2022-08-19T07:52:00.346Z,1005.51
2022-08-19T07:53:00.351Z,1005.54
2022-08-19T07:54:00.356Z,1005.60
2022-08-19T07:55:00.364Z,1005.64
2022-08-19T07:56:00.362Z,1005.66
2022-08-19T07:57:00.371Z,1005.66
2022-08-19T07:58:00.371Z,1005.72
2022-08-19T07:59:00.382Z,1005.66
2022-08-19T08:00:00.396Z,1005.69
2022-08-19T08:01:00.384Z,1005.67
2022-08-19T08:02:00.461Z,1005.70
2022-08-19T08:03:00.400Z,1005.74
2022-08-19T08:04:00.394Z,1005.72
2022-08-19T08:05:00.397Z,1005.75
2022-08-19T08:06:00.399Z,1005.74
2022-08-19T08:07:00.422Z,1005.70
2022-08-19T08:08:00.410Z,1005.67
2022-08-19T08:09:00.414Z,1005.67
2022-08-19T08:10:00.817Z,1005.68
2022-08-19T08:11:00.427Z,1005.71
2022-08-19T08:12:05.044Z,1005.68
2022-08-19T08:13:09.538Z,1005.70
2022-08-19T08:14:04.551Z,1005.69
2022-08-19T08:15:00.438Z,1005.77
2022-08-19T08:16:00.442Z,1005.77
2022-08-19T08:17:00.445Z,1005.80
2022-08-19T08:18:00.446Z,1005.81
2022-08-19T08:19:00.454Z,1005.84
2022-08-19T08:20:00.455Z,1005.84
2022-08-19T08:21:00.461Z,1005.91
2022-08-19T08:22:00.465Z,1005.92
2022-08-19T08:23:00.473Z,1005.93
2022-08-19T08:25:00.480Z,1005.97
2022-08-19T08:26:00.489Z,1005.95
2022-08-19T08:27:00.485Z,1006.00
2022-08-19T08:28:00.487Z,1005.97
2022-08-19T08:29:00.497Z,1005.98
2022-08-19T08:30:02.823Z,1005.95
2022-08-19T08:31:00.510Z,1005.99
2022-08-19T08:32:00.509Z,1006.03
2022-08-19T08:33:00.514Z,1006.03
2022-08-19T08:34:00.515Z,1006.06
2022-08-19T08:35:00.522Z,1006.06
2022-08-19T08:36:00.524Z,1006.16
2022-08-19T08:37:00.530Z,1006.18
2022-08-19T08:38:00.534Z,1006.24
2022-08-19T08:39:00.545Z,1006.24
2022-08-19T08:40:00.577Z,1006.18
2022-08-19T08:41:00.552Z,1006.17
2022-08-19T08:42:00.557Z,1006.13
2022-08-19T08:44:00.556Z,1006.08
2022-08-19T08:45:00.605Z,1006.11
2022-08-19T08:46:00.575Z,1006.18
2022-08-19T08:47:00.576Z,1006.16
2022-08-19T08:48:00.583Z,1006.13
2022-08-19T08:49:00.585Z,1006.12
2022-08-19T08:50:00.596Z,1006.11
2022-08-19T08:51:00.599Z,1006.05
2022-08-19T08:52:00.693Z,1005.94
2022-08-19T08:53:00.611Z,1005.95
2022-08-19T08:54:00.613Z,1005.99
2022-08-19T08:55:00.620Z,1005.89
2022-08-19T08:56:00.622Z,1005.89
2022-08-19T08:57:00.629Z,1005.92
2022-08-19T08:58:00.640Z,1005.88
2022-08-19T08:59:00.644Z,1005.92
2022-08-19T09:00:00.652Z,1005.92
2022-08-19T09:01:00.655Z,1005.94
2022-08-19T09:02:00.712Z,1005.99
2022-08-19T09:03:00.667Z,1005.99
2022-08-19T09:04:02.866Z,1006.03
2022-08-19T09:05:00.678Z,1006.12
2022-08-19T09:06:00.681Z,1006.15
2022-08-19T09:07:00.689Z,1006.10
2022-08-19T09:08:00.699Z,1006.16
2022-08-19T09:09:00.703Z,1006.16
2022-08-19T09:10:00.713Z,1006.18
2022-08-19T09:11:00.709Z,1006.20
2022-08-19T09:12:00.716Z,1006.16
2022-08-19T09:13:00.724Z,1006.16
2022-08-19T09:14:00.729Z,1006.11
2022-08-19T09:15:00.730Z,1006.17
2022-08-19T09:16:00.737Z,1006.14
2022-08-19T09:17:00.748Z,1006.19
2022-08-19T09:18:00.756Z,1006.17
2022-08-19T09:19:00.757Z,1006.19
2022-08-19T09:20:01.722Z,1006.23
2022-08-19T09:21:00.767Z,1006.22
2022-08-19T09:22:00.778Z,1006.26
2022-08-19T09:23:00.784Z,1006.20
2022-08-19T09:24:00.788Z,1006.15
2022-08-19T09:25:00.791Z,1006.10
2022-08-19T09:26:00.799Z,1006.12
2022-08-19T09:27:01.193Z,1006.16
2022-08-19T09:28:02.490Z,1006.54
2022-08-19T09:29:00.824Z,1006.54
2022-08-19T09:30:00.828Z,1006.37
2022-08-19T09:31:00.828Z,1006.49
2022-08-19T09:32:00.842Z,1006.14
2022-08-19T09:33:00.851Z,1006.05
2022-08-19T09:34:00.849Z,1006.05
2022-08-19T09:35:00.861Z,1006.08
2022-08-19T09:36:00.865Z,1006.06
2022-08-19T09:37:00.874Z,1006.02
2022-08-19T09:38:00.962Z,1006.04
2022-08-19T09:39:00.881Z,1006.02
2022-08-19T09:40:00.943Z,1006.03
2022-08-19T09:41:00.894Z,1006.02
2022-08-19T09:42:00.902Z,1006.00
2022-08-19T09:43:00.912Z,1006.04
2022-08-19T09:44:00.939Z,1006.04
2022-08-19T09:45:00.926Z,1006.07
2022-08-19T09:46:00.931Z,1006.06
2022-08-19T09:47:00.942Z,1006.02
2022-08-19T09:48:00.941Z,1005.99
2022-08-19T09:49:06.344Z,1005.99
2022-08-19T09:50:00.956Z,1006.02
2022-08-19T09:51:00.963Z,1005.99
2022-08-19T09:52:00.972Z,1005.94
2022-08-19T09:53:00.975Z,1005.92
2022-08-19T09:54:00.985Z,1005.91
2022-08-19T09:55:00.989Z,1005.90
2022-08-19T09:56:00.989Z,1005.86
2022-08-19T09:57:01.002Z,1005.87
2022-08-19T09:58:01.006Z,1005.88
2022-08-19T09:59:01.015Z,1005.89
2022-08-19T10:00:01.024Z,1005.93
2022-08-19T10:01:01.088Z,1005.96
2022-08-19T10:02:03.911Z,1005.96
2022-08-19T10:03:01.189Z,1005.88
2022-08-19T10:04:01.052Z,1005.87
2022-08-19T10:05:01.046Z,1005.85
2022-08-19T10:06:01.056Z,1005.82
2022-08-19T10:07:01.065Z,1005.93
2022-08-19T10:08:01.069Z,1005.95
2022-08-19T10:09:01.075Z,1005.89
2022-08-19T10:10:01.076Z,1006.00
2022-08-19T10:11:02.438Z,1005.91
2022-08-19T10:12:01.090Z,1005.89
2022-08-19T10:13:01.104Z,1005.81
2022-08-19T10:14:01.106Z,1005.80
2022-08-19T10:15:01.108Z,1005.80
2022-08-19T10:16:01.118Z,1005.84
2022-08-19T10:17:01.130Z,1005.84
2022-08-19T10:18:01.137Z,1005.77
2022-08-19T10:19:01.138Z,1005.74
2022-08-19T10:20:01.152Z,1005.73
2022-08-19T10:21:01.165Z,1005.71
2022-08-19T10:22:01.154Z,1005.68
2022-08-19T10:23:01.158Z,1005.62
2022-08-19T10:24:01.162Z,1005.60
2022-08-19T10:25:01.167Z,1005.67
2022-08-19T10:26:01.180Z,1005.70
2022-08-19T10:27:01.185Z,1005.71
2022-08-19T10:28:01.191Z,1005.75
2022-08-19T10:29:01.190Z,1005.77
2022-08-19T10:30:01.210Z,1005.77
2022-08-19T10:31:01.201Z,1005.76
2022-08-19T10:32:02.683Z,1005.73
2022-08-19T10:33:01.722Z,1005.71
2022-08-19T10:34:02.118Z,1005.72
2022-08-19T10:35:01.231Z,1005.73
2022-08-19T10:36:01.234Z,1005.73
2022-08-19T10:37:01.794Z,1005.74
2022-08-19T10:38:02.191Z,1005.75
2022-08-19T10:39:01.250Z,1005.71
2022-08-19T10:40:01.297Z,1005.72
2022-08-19T10:41:01.262Z,1005.73
2022-08-19T10:42:01.269Z,1005.69
2022-08-19T10:43:01.278Z,1005.68
2022-08-19T10:44:04.489Z,1005.67
2022-08-19T10:45:01.349Z,1005.67
2022-08-19T10:46:01.297Z,1005.60
2022-08-19T10:47:01.298Z,1005.64
2022-08-19T10:48:01.313Z,1005.63
2022-08-19T10:49:01.305Z,1005.59
2022-08-19T10:50:01.321Z,1005.64
2022-08-19T10:51:01.321Z,1005.71
2022-08-19T10:52:01.328Z,1005.69
2022-08-19T10:53:01.336Z,1005.66
2022-08-19T10:54:01.337Z,1005.67
2022-08-19T10:55:05.162Z,1005.64
2022-08-19T10:56:01.349Z,1005.66
2022-08-19T10:57:01.356Z,1005.67
2022-08-19T10:58:02.948Z,1005.66
2022-08-19T10:59:01.367Z,1005.73
2022-08-19T11:00:01.372Z,1005.74
2022-08-19T11:01:01.450Z,1005.78
2022-08-19T11:02:01.383Z,1005.79
2022-08-19T11:03:01.388Z,1005.77
2022-08-19T11:04:01.392Z,1005.76
2022-08-19T11:05:04.989Z,1005.80
2022-08-19T11:06:01.406Z,1005.80
2022-08-19T11:07:01.413Z,1005.82
2022-08-19T11:08:01.418Z,1005.88
2022-08-19T11:09:01.427Z,1005.89
2022-08-19T11:10:01.430Z,1005.89
2022-08-19T11:11:01.439Z,1005.85
2022-08-19T11:12:02.819Z,1005.87
2022-08-19T11:13:01.444Z,1005.90
2022-08-19T11:14:01.453Z,1005.85
2022-08-19T11:15:01.455Z,1005.89
2022-08-19T11:16:05.322Z,1005.90
2022-08-19T11:17:01.469Z,1005.88
2022-08-19T11:18:01.474Z,1005.87
2022-08-19T11:19:01.476Z,1005.87
2022-08-19T11:20:01.487Z,1005.93
2022-08-19T11:21:01.502Z,1005.96
2022-08-19T11:22:01.495Z,1005.97
2022-08-19T11:23:01.501Z,1005.96
2022-08-19T11:24:01.512Z,1005.98
2022-08-19T11:25:01.513Z,1005.99
2022-08-19T11:26:01.516Z,1006.01
2022-08-19T11:27:01.525Z,1005.96
2022-08-19T11:28:01.538Z,1005.93
2022-08-19T11:29:01.536Z,1005.86
2022-08-19T11:30:01.541Z,1005.84
2022-08-19T11:31:01.555Z,1005.85
2022-08-19T11:32:01.555Z,1005.84
2022-08-19T11:33:01.557Z,1005.82
2022-08-19T11:34:01.564Z,1005.85
2022-08-19T11:35:01.570Z,1005.85
2022-08-19T11:36:01.578Z,1005.85
2022-08-19T11:37:01.582Z,1005.82
2022-08-19T11:38:01.587Z,1005.78
2022-08-19T11:39:01.588Z,1005.78
2022-08-19T11:40:01.694Z,1005.76
2022-08-19T11:41:01.606Z,1005.80
2022-08-19T11:42:01.604Z,1005.82
2022-08-19T11:43:01.815Z,1005.83
2022-08-19T11:44:01.620Z,1005.86
2022-08-19T11:45:01.623Z,1005.91
2022-08-19T11:46:01.631Z,1005.88
2022-08-19T11:47:08.946Z,1005.93
2022-08-19T11:48:01.642Z,1005.92
2022-08-19T11:49:01.701Z,1005.94
2022-08-19T11:50:01.650Z,1005.98
2022-08-19T11:51:01.659Z,1005.98
2022-08-19T11:52:01.660Z,1005.98
2022-08-19T11:53:01.663Z,1005.96
2022-08-19T11:54:01.670Z,1005.98
2022-08-19T11:55:01.677Z,1005.99
2022-08-19T11:56:01.682Z,1006.06
2022-08-19T11:57:01.682Z,1006.03
2022-08-19T11:58:01.694Z,1006.10
2022-08-19T11:59:01.707Z,1006.09
2022-08-19T12:00:01.698Z,1006.15
2022-08-19T12:01:01.706Z,1006.13
2022-08-19T12:02:01.709Z,1006.13
2022-08-19T12:03:01.718Z,1006.12
2022-08-19T12:04:01.774Z,1006.12
2022-08-19T12:05:01.725Z,1006.10
2022-08-19T12:06:01.735Z,1006.11
2022-08-19T12:07:01.739Z,1006.12
2022-08-19T12:08:01.745Z,1006.14